Sao Francisco de Paula, Brazil
Current Conditions -  °F | °C
As of 4:00 PM on Thursday 29 Jan 2015 (Local Time) from SBBQ Reporting Station
Broken Clouds Broken Clouds  
Wind Chill: 86°   Ceiling: 4000
Heat Index: 86°   Visibility: 6mi
Dew Point: 61°   Wind: 8mph
Humidity: 43%   Direction: 290°WNW
Pressure: 30.09"   Gusts: NA
Location:  20.71°S, 44.99°W
Report Text: SBBQ 291800Z 29007KT 9999 BKN040 FEW045TCU 30/16 Q1019
Loading
Personal Weather Stations






























Interactive Weather Map New forecast layout! Learn more

10-Day Weather Forecast

Advertisements
Track Severe Weather on mobile